Aérodrome :
LOGIN :

S'inscrire | Disclaimer

   EN    FR    IT 

 










Légende :    VFR   VFR Marginal   IFR   IFR Intensif   IFR Très Intensif
Visi : 
Plafond : 
>= 8 km
>= 3000ft
5 à 8 km
1000 à 3000 ft
1500m à 5 km
500 à 1000 ft
800 à 1500m
200 à 500 ft
< 800m
< 200 ft
Symboles :   Orages  Brouillard  Fortes neiges  Fortes précipitations  Vent > 20 kt
SIGMETs :   Divers  Orages  Givrage  Turbulence  Onde Orograph.  Cendres Volcan.







- Altitude de l'aérodrome : 285 ft
- Code IATA : GOZ


LBGO - Gorna Oryahovitsa

DERNIER METAR :
  • 190200Z AUTO 26005KT 9999 NCD M00/M00 Q1017

METARs EXPIRÉS :
  • 190130Z AUTO VRB02KT 5000 BR NCD M02/M02 Q1017
  • 190100Z AUTO 15004KT 120V180 9000 NCD M02/M02 Q1017
  • 190030Z AUTO 24002KT 7000 NCD M02/M02 Q1017
  • 190000Z AUTO 10004KT 6000 BR NCD M02/M02 Q1016
  • 182330Z AUTO 15003KT 4400 BR NCD M02/M02 Q1016

TAF TAF LBGO
Valide du 19 à 00h jusqu'au 20 à 00h UTC


182300Z 1900/1924 VRB04KT 5000 BR SCT060
TEMPO 1900/1904 1500 BR BKN030
PROB40
TEMPO 1904/1907 4000 FZRA BKN020 OVC030
BECMG 1910/1912 08010KT SCT030 OVC050
PROB30
TEMPO 1912/1916 5000 RA OVC030
BECMG 1916/1918 VRB04KT
Pas de NOTAMs connus pour ce terrain.



MET'MAP, la Météo Aéronautique d'un coup d'oeil ! - Copyright ORBIFLY Décembre 2007 - Disclaimer

ORBIFLY MET'MAP TEAM :

Programmation & Développement : Alexandra Zaïnal
Conception & Développement : Baudouin d'Aumeries
Co-Programmation & Développement : Marc-Olivier Méhu
Soutien technique & logistique : Manuel Goepfert

Contact : metmap@orbifly.com




SOURCES & CREDITS :

   NOAA